createdAt,value
2017-11-13T00:01:57.372Z,5.10
2017-11-13T00:04:25.795Z,5.10
2017-11-13T00:06:54.184Z,5.10
2017-11-13T00:09:22.526Z,5.00
2017-11-13T00:11:51.604Z,4.90
2017-11-13T00:14:19.970Z,4.80
2017-11-13T00:16:48.713Z,4.80
2017-11-13T00:19:17.180Z,4.80
2017-11-13T00:21:45.532Z,4.80
2017-11-13T00:24:13.890Z,4.70
2017-11-13T00:26:43.484Z,4.70
2017-11-13T00:29:11.860Z,4.70
2017-11-13T00:31:41.098Z,4.60
2017-11-13T00:34:09.532Z,4.60
2017-11-13T00:36:38.714Z,4.60
2017-11-13T00:39:07.108Z,4.50
2017-11-13T00:41:35.498Z,4.60
2017-11-13T00:44:03.855Z,4.60
2017-11-13T00:46:32.221Z,4.50
2017-11-13T00:49:00.764Z,4.50
2017-11-13T00:51:29.852Z,4.50
2017-11-13T00:53:58.257Z,4.50
2017-11-13T00:56:27.375Z,4.50
2017-11-13T00:58:56.724Z,4.60
2017-11-13T01:01:25.915Z,4.60
2017-11-13T01:03:54.300Z,4.70
2017-11-13T01:06:22.976Z,4.80
2017-11-13T01:08:51.353Z,4.80
2017-11-13T01:11:19.731Z,4.70
2017-11-13T01:13:48.086Z,4.80
2017-11-13T01:16:17.449Z,4.70
2017-11-13T01:18:45.840Z,4.70
2017-11-13T01:21:14.357Z,4.60
2017-11-13T01:23:42.747Z,4.60
2017-11-13T01:26:11.370Z,4.60
2017-11-13T01:28:39.794Z,4.60
2017-11-13T01:31:08.135Z,4.60
2017-11-13T01:33:38.501Z,4.70
2017-11-13T01:36:06.865Z,4.70
2017-11-13T01:38:35.285Z,4.70
2017-11-13T01:41:03.636Z,4.70
2017-11-13T01:43:33.022Z,4.60
2017-11-13T01:46:01.959Z,4.60
2017-11-13T01:48:30.874Z,4.60
2017-11-13T01:51:00.041Z,4.70
2017-11-13T01:53:30.322Z,4.70
2017-11-13T01:55:58.941Z,4.70
2017-11-13T01:58:28.616Z,4.60
2017-11-13T02:00:56.771Z,4.60
2017-11-13T02:03:24.945Z,4.60
2017-11-13T02:05:52.476Z,4.60
2017-11-13T02:08:20.722Z,4.60
2017-11-13T02:10:49.645Z,4.60
2017-11-13T02:13:18.080Z,4.60
2017-11-13T02:15:46.725Z,4.60
2017-11-13T02:18:17.177Z,4.50
2017-11-13T02:20:44.664Z,4.50
2017-11-13T02:23:13.498Z,4.50
2017-11-13T02:25:41.285Z,4.50
2017-11-13T02:28:08.969Z,4.50
2017-11-13T02:30:37.005Z,4.50
2017-11-13T02:33:05.017Z,4.50
2017-11-13T02:35:33.832Z,4.60
2017-11-13T02:38:01.884Z,4.60
2017-11-13T02:40:29.634Z,4.60
2017-11-13T02:42:57.653Z,4.60
2017-11-13T02:45:25.683Z,4.60
2017-11-13T02:47:53.959Z,4.70
2017-11-13T02:50:22.635Z,4.70
2017-11-13T02:52:50.640Z,4.80
2017-11-13T02:55:18.805Z,4.90
2017-11-13T02:57:46.555Z,4.90
2017-11-13T03:00:14.393Z,4.90
2017-11-13T03:02:42.736Z,4.90
2017-11-13T03:05:11.115Z,4.90
2017-11-13T03:07:39.646Z,4.90
2017-11-13T03:10:08.855Z,5.00
2017-11-13T03:12:37.323Z,5.00
2017-11-13T03:15:05.524Z,5.00
2017-11-13T03:17:34.148Z,5.00
2017-11-13T03:20:03.323Z,4.90
2017-11-13T03:22:31.380Z,4.90
2017-11-13T03:25:00.841Z,4.90
2017-11-13T03:27:28.859Z,4.90
2017-11-13T03:29:57.220Z,5.00
2017-11-13T03:32:25.765Z,5.10
2017-11-13T03:34:54.114Z,5.10
2017-11-13T03:37:22.459Z,5.20
2017-11-13T03:39:52.541Z,5.20
2017-11-13T03:42:20.897Z,5.10
2017-11-13T03:44:50.831Z,5.10
2017-11-13T03:47:18.915Z,5.20
2017-11-13T03:49:47.814Z,5.20
2017-11-13T03:52:16.209Z,5.20
2017-11-13T03:54:44.834Z,5.20
2017-11-13T03:57:13.311Z,5.10
2017-11-13T03:59:41.671Z,5.20
2017-11-13T04:02:10.096Z,5.20
2017-11-13T04:04:38.699Z,5.30
2017-11-13T04:07:07.204Z,5.30
2017-11-13T04:09:35.553Z,5.40
2017-11-13T04:12:03.564Z,5.40
2017-11-13T04:24:12.126Z,5.50
2017-11-13T04:26:40.379Z,5.60
2017-11-13T04:29:09.806Z,5.60
2017-11-13T04:31:38.189Z,5.60
2017-11-13T04:34:06.559Z,5.50
2017-11-13T04:36:34.911Z,5.50
2017-11-13T04:39:02.926Z,5.40
2017-11-13T04:41:31.308Z,5.40
2017-11-13T04:43:59.668Z,5.40
2017-11-13T04:46:28.237Z,5.40
2017-11-13T04:48:56.622Z,5.40
2017-11-13T04:51:26.024Z,5.40
2017-11-13T04:53:54.396Z,5.40
2017-11-13T04:56:23.035Z,5.50
2017-11-13T04:58:51.379Z,5.50
2017-11-13T05:01:19.766Z,5.50
2017-11-13T05:03:48.133Z,5.50
2017-11-13T05:06:16.083Z,5.50
2017-11-13T05:08:44.512Z,5.60
2017-11-13T05:11:12.925Z,5.60
2017-11-13T05:13:41.307Z,5.60
2017-11-13T05:16:09.980Z,5.70
2017-11-13T05:18:38.937Z,5.70
2017-11-13T05:21:08.166Z,5.70
2017-11-13T05:23:36.596Z,5.70
2017-11-13T05:26:05.117Z,5.80
2017-11-13T05:28:33.993Z,5.80
2017-11-13T05:31:03.595Z,5.80
2017-11-13T05:33:31.980Z,5.80
2017-11-13T05:36:00.554Z,5.80
2017-11-13T05:38:28.917Z,5.90
2017-11-13T05:40:57.307Z,5.90
2017-11-13T05:43:25.662Z,5.90
2017-11-13T05:45:55.409Z,5.90
2017-11-13T05:48:23.783Z,5.90
2017-11-13T05:50:52.157Z,5.90
2017-11-13T05:53:20.834Z,5.90
2017-11-13T05:55:49.190Z,5.90
2017-11-13T05:58:19.087Z,5.90
2017-11-13T06:00:48.222Z,5.90
2017-11-13T06:03:16.579Z,5.90
2017-11-13T06:05:44.973Z,5.90
2017-11-13T06:08:12.978Z,5.90
2017-11-13T06:10:41.343Z,5.80
2017-11-13T06:13:09.713Z,5.80
2017-11-13T06:15:38.069Z,5.80
2017-11-13T06:18:06.418Z,5.70
2017-11-13T06:20:34.960Z,5.70
2017-11-13T06:23:03.328Z,5.70
2017-11-13T06:25:31.697Z,5.70
2017-11-13T06:28:00.047Z,5.70
2017-11-13T06:30:28.395Z,5.70
2017-11-13T06:32:56.771Z,5.70
2017-11-13T06:35:25.172Z,5.60
2017-11-13T06:37:53.552Z,5.60
2017-11-13T06:40:22.129Z,5.50
2017-11-13T06:42:50.472Z,5.50
2017-11-13T06:45:19.600Z,5.40
2017-11-13T06:47:47.949Z,5.40
2017-11-13T06:50:16.355Z,5.40
2017-11-13T06:52:44.932Z,5.30
2017-11-13T06:55:13.532Z,5.30
2017-11-13T06:57:41.968Z,5.30
2017-11-13T07:00:11.107Z,5.30
2017-11-13T07:02:39.465Z,5.30
2017-11-13T07:05:07.761Z,5.20
2017-11-13T07:07:36.340Z,5.30
2017-11-13T07:10:04.996Z,5.30
2017-11-13T07:12:33.434Z,5.30
2017-11-13T07:15:01.849Z,5.30
2017-11-13T07:17:30.300Z,5.30
2017-11-13T07:19:58.925Z,5.30
2017-11-13T07:22:27.092Z,5.30
2017-11-13T07:24:55.649Z,5.30
2017-11-13T07:27:24.005Z,5.30
2017-11-13T07:29:54.410Z,5.30
2017-11-13T07:32:22.823Z,5.30
2017-11-13T07:34:51.311Z,5.30
2017-11-13T07:37:19.666Z,5.30
2017-11-13T07:39:48.634Z,5.30
2017-11-13T07:42:16.910Z,5.30
2017-11-13T07:44:45.080Z,5.30
2017-11-13T07:47:13.266Z,5.30
2017-11-13T07:49:41.905Z,5.30
2017-11-13T07:52:10.267Z,5.30
2017-11-13T07:54:39.869Z,5.30
2017-11-13T07:57:08.551Z,5.30
2017-11-13T07:59:37.018Z,5.30
2017-11-13T08:02:05.380Z,5.30
2017-11-13T08:04:33.726Z,5.30
2017-11-13T08:07:02.084Z,5.30
2017-11-13T08:09:30.452Z,5.30
2017-11-13T08:11:58.827Z,5.30
2017-11-13T08:14:27.195Z,5.40
2017-11-13T08:16:55.557Z,5.40
2017-11-13T08:19:24.236Z,5.40
2017-11-13T08:21:52.640Z,5.40
2017-11-13T08:24:21.247Z,5.40
2017-11-13T08:26:49.671Z,5.40
2017-11-13T08:29:18.032Z,5.40
2017-11-13T08:31:46.427Z,5.50
2017-11-13T08:34:14.605Z,5.50
2017-11-13T08:36:42.972Z,5.50
2017-11-13T08:39:11.552Z,5.60
2017-11-13T08:41:39.934Z,5.60
2017-11-13T08:44:08.359Z,5.70
2017-11-13T08:46:37.027Z,5.70
2017-11-13T08:49:06.586Z,5.80
2017-11-13T08:51:34.935Z,5.70
2017-11-13T08:54:04.063Z,5.80
2017-11-13T08:56:32.423Z,5.80
2017-11-13T08:59:00.804Z,5.90
2017-11-13T09:01:29.168Z,6.00
2017-11-13T09:03:57.521Z,6.00
2017-11-13T09:06:25.931Z,6.00
2017-11-13T09:08:54.283Z,6.00
2017-11-13T09:11:22.664Z,6.10
2017-11-13T09:13:51.038Z,6.10
2017-11-13T09:16:19.424Z,6.10
2017-11-13T09:18:47.995Z,6.20
2017-11-13T09:21:17.115Z,6.20
2017-11-13T09:23:45.493Z,6.20
2017-11-13T09:26:14.110Z,6.20
2017-11-13T09:28:44.092Z,6.30
2017-11-13T09:31:12.443Z,6.30
2017-11-13T09:33:40.852Z,6.40
2017-11-13T09:36:08.892Z,6.40
2017-11-13T09:38:37.737Z,6.40
2017-11-13T09:41:06.704Z,6.50
2017-11-13T09:43:37.248Z,6.50
2017-11-13T09:46:05.608Z,6.50
2017-11-13T09:48:34.525Z,6.60
2017-11-13T09:51:03.139Z,6.60
2017-11-13T09:53:31.524Z,6.60
2017-11-13T09:55:59.882Z,6.70
2017-11-13T09:58:28.243Z,6.70
2017-11-13T10:00:57.330Z,6.80
2017-11-13T10:03:26.089Z,6.80
2017-11-13T10:05:54.555Z,6.90
2017-11-13T10:08:23.234Z,7.00
2017-11-13T10:10:51.636Z,7.00
2017-11-13T10:13:21.176Z,7.00
2017-11-13T10:15:50.283Z,7.10
2017-11-13T10:18:18.660Z,7.10
2017-11-13T10:20:47.300Z,7.10
2017-11-13T10:23:15.167Z,7.10
2017-11-13T10:25:43.761Z,7.20
2017-11-13T10:28:12.208Z,7.20
2017-11-13T10:30:40.571Z,7.30
2017-11-13T10:33:08.749Z,7.30
2017-11-13T10:35:36.914Z,7.30
2017-11-13T10:38:05.300Z,7.40
2017-11-13T10:40:33.740Z,7.50
2017-11-13T10:43:02.116Z,7.50
2017-11-13T10:45:30.491Z,7.60
2017-11-13T10:47:58.862Z,7.60
2017-11-13T10:50:27.361Z,7.60
2017-11-13T10:52:55.719Z,7.70
2017-11-13T10:55:23.560Z,7.70
2017-11-13T10:57:51.726Z,7.80
2017-11-13T11:00:19.460Z,7.80
2017-11-13T11:02:47.928Z,7.90
2017-11-13T11:05:16.812Z,8.00
2017-11-13T11:07:44.990Z,8.00
2017-11-13T11:10:13.175Z,8.10
2017-11-13T11:12:41.349Z,8.20
2017-11-13T11:18:27.592Z,8.40
2017-11-13T11:20:59.207Z,8.50
2017-11-13T11:23:27.384Z,8.60
2017-11-13T11:26:06.436Z,8.70
2017-11-13T11:28:40.289Z,8.70
2017-11-13T11:31:12.306Z,8.80
2017-11-13T11:33:52.518Z,8.90
2017-11-13T11:36:23.488Z,8.90
2017-11-13T11:38:51.926Z,9.00
2017-11-13T11:41:20.105Z,9.10
2017-11-13T11:43:48.321Z,9.30
2017-11-13T11:46:19.368Z,9.30
2017-11-13T11:49:04.341Z,9.30
2017-11-13T11:51:32.517Z,9.30
2017-11-13T11:54:04.874Z,9.50
2017-11-13T11:56:33.565Z,9.50
2017-11-13T11:59:01.731Z,9.40
2017-11-13T12:01:29.899Z,9.50
2017-11-13T12:03:58.515Z,9.50
2017-11-13T12:06:26.708Z,9.40
2017-11-13T12:08:54.914Z,9.40
2017-11-13T12:11:23.096Z,9.30
2017-11-13T12:13:52.353Z,9.30
2017-11-13T12:16:21.497Z,9.30
2017-11-13T12:18:49.860Z,9.20
2017-11-13T12:21:17.891Z,9.30
2017-11-13T12:23:46.517Z,9.20
2017-11-13T12:26:14.910Z,9.20
2017-11-13T12:28:43.279Z,9.30
2017-11-13T12:31:11.645Z,9.30
2017-11-13T12:33:40.021Z,9.30
2017-11-13T12:36:09.469Z,9.20
2017-11-13T12:38:37.996Z,9.20
2017-11-13T12:41:06.344Z,9.10
2017-11-13T12:43:34.971Z,9.10
2017-11-13T12:46:03.335Z,8.90
2017-11-13T12:48:31.809Z,8.90
2017-11-13T12:51:00.156Z,8.90
2017-11-13T12:53:28.941Z,9.00
2017-11-13T12:55:57.552Z,9.00
2017-11-13T12:58:26.197Z,9.20
2017-11-13T13:00:55.379Z,9.50
2017-11-13T13:03:23.912Z,9.50
2017-11-13T13:05:52.587Z,9.60
2017-11-13T13:08:21.204Z,9.50
2017-11-13T13:10:49.960Z,9.40
2017-11-13T13:13:17.622Z,9.20
2017-11-13T13:15:45.635Z,9.10
2017-11-13T13:18:14.009Z,9.00
2017-11-13T13:20:42.373Z,8.90
2017-11-13T13:23:10.912Z,8.90
2017-11-13T13:25:39.269Z,8.80
2017-11-13T13:28:08.224Z,8.70
2017-11-13T13:30:37.606Z,8.70
2017-11-13T13:33:05.968Z,8.70
2017-11-13T13:35:34.202Z,8.80
2017-11-13T13:38:02.567Z,8.90
2017-11-13T13:40:30.927Z,9.10
2017-11-13T13:42:59.455Z,9.30
2017-11-13T13:45:27.934Z,9.50
2017-11-13T13:47:57.083Z,9.50
2017-11-13T13:50:25.434Z,9.50
2017-11-13T13:52:53.608Z,9.50
2017-11-13T13:55:22.257Z,9.40
2017-11-13T13:57:50.627Z,9.60
2017-11-13T14:00:19.604Z,9.50
2017-11-13T14:02:48.730Z,9.50
2017-11-13T14:05:16.909Z,9.50
2017-11-13T14:07:45.371Z,9.40
2017-11-13T14:10:13.754Z,9.30
2017-11-13T14:12:42.187Z,9.20
2017-11-13T14:15:10.563Z,9.10
2017-11-13T14:17:38.922Z,9.00
2017-11-13T14:20:07.283Z,9.00
2017-11-13T14:22:35.650Z,8.90
2017-11-13T14:25:04.011Z,8.90
2017-11-13T14:27:32.681Z,8.90
2017-11-13T14:30:00.888Z,8.90
2017-11-13T14:32:29.496Z,8.80
2017-11-13T14:34:57.882Z,8.80
2017-11-13T14:37:26.991Z,8.70
2017-11-13T14:39:55.352Z,8.70
2017-11-13T14:42:23.785Z,8.70
2017-11-13T14:44:52.155Z,8.70
2017-11-13T14:47:20.331Z,8.70
2017-11-13T14:49:48.704Z,8.70
2017-11-13T14:52:17.061Z,8.70
2017-11-13T14:54:45.428Z,8.70
2017-11-13T14:57:14.114Z,8.70
2017-11-13T14:59:42.455Z,8.70
2017-11-13T15:02:11.069Z,8.70
2017-11-13T15:04:39.499Z,8.60
2017-11-13T15:07:07.882Z,8.60
2017-11-13T15:09:37.023Z,8.60
2017-11-13T15:12:05.388Z,8.60
2017-11-13T15:14:33.760Z,8.60
2017-11-13T15:17:02.189Z,8.60
2017-11-13T15:19:30.825Z,8.50
2017-11-13T15:21:59.265Z,8.50
2017-11-13T15:24:27.477Z,8.40
2017-11-13T15:26:55.868Z,8.40
2017-11-13T15:29:24.050Z,8.40
2017-11-13T15:31:52.603Z,8.30
2017-11-13T15:34:21.085Z,8.30
2017-11-13T15:36:49.460Z,8.20
2017-11-13T15:39:17.832Z,8.10
2017-11-13T15:41:46.351Z,8.20
2017-11-13T15:44:15.720Z,8.20
2017-11-13T15:46:44.100Z,8.10
2017-11-13T15:49:13.092Z,8.10
2017-11-13T15:51:41.658Z,8.10
2017-11-13T15:54:10.006Z,8.20
2017-11-13T15:56:39.158Z,8.10
2017-11-13T15:59:07.502Z,8.10
2017-11-13T16:01:36.083Z,8.10
2017-11-13T16:04:04.950Z,8.10
2017-11-13T16:06:33.450Z,8.10
2017-11-13T16:09:02.744Z,8.20
2017-11-13T16:11:31.339Z,8.20
2017-11-13T16:14:00.055Z,8.20
2017-11-13T16:16:30.057Z,8.20
2017-11-13T16:18:58.712Z,8.20
2017-11-13T16:21:27.086Z,8.20
2017-11-13T16:23:55.445Z,8.20
2017-11-13T16:26:23.836Z,8.20
2017-11-13T16:28:51.994Z,8.10
2017-11-13T16:31:20.671Z,8.10
2017-11-13T16:33:49.015Z,8.10
2017-11-13T16:36:17.379Z,8.10
2017-11-13T16:38:45.963Z,8.10
2017-11-13T16:41:14.399Z,8.10
2017-11-13T16:43:42.762Z,8.10
2017-11-13T16:46:11.136Z,8.10
2017-11-13T16:48:40.286Z,8.10
2017-11-13T16:51:09.018Z,7.90
2017-11-13T16:53:37.812Z,7.90
2017-11-13T16:56:06.187Z,7.80
2017-11-13T16:58:36.380Z,7.80
2017-11-13T17:01:05.509Z,7.70
2017-11-13T17:03:34.236Z,7.70
2017-11-13T17:06:02.862Z,7.70
2017-11-13T17:08:31.230Z,7.70
2017-11-13T17:11:00.126Z,7.60
2017-11-13T17:13:28.507Z,7.70
2017-11-13T17:15:57.290Z,7.70
2017-11-13T17:18:25.643Z,7.70
2017-11-13T17:20:54.012Z,7.70
2017-11-13T17:23:22.008Z,7.70
2017-11-13T17:25:50.491Z,7.70
2017-11-13T17:28:18.868Z,7.70
2017-11-13T17:30:47.474Z,7.70
2017-11-13T17:33:15.855Z,7.70
2017-11-13T17:35:44.229Z,7.70
2017-11-13T17:38:12.589Z,7.70
2017-11-13T17:40:40.962Z,7.70
2017-11-13T17:43:09.426Z,7.70
2017-11-13T17:45:37.815Z,7.70
2017-11-13T17:48:06.184Z,7.60
2017-11-13T17:50:34.552Z,7.60
2017-11-13T17:53:02.903Z,7.60
2017-11-13T17:55:32.024Z,7.60
2017-11-13T17:58:00.645Z,7.60
2017-11-13T18:00:29.017Z,7.60
2017-11-13T18:02:57.371Z,7.60
2017-11-13T18:05:26.540Z,7.50
2017-11-13T18:07:55.097Z,7.50
2017-11-13T18:10:23.536Z,7.50
2017-11-13T18:12:52.759Z,7.40
2017-11-13T18:15:20.976Z,7.40
2017-11-13T18:17:49.356Z,7.30
2017-11-13T18:20:17.744Z,7.30
2017-11-13T18:22:46.908Z,7.30
2017-11-13T18:25:15.307Z,7.30
2017-11-13T18:27:43.983Z,7.20
2017-11-13T18:30:12.604Z,7.20
2017-11-13T18:32:41.028Z,7.10
2017-11-13T18:35:10.007Z,7.10
2017-11-13T18:37:39.480Z,7.00
2017-11-13T18:40:07.856Z,7.00
2017-11-13T18:42:36.233Z,7.00
2017-11-13T18:45:05.493Z,6.90
2017-11-13T18:47:33.913Z,6.90
2017-11-13T18:50:02.552Z,6.90
2017-11-13T18:52:31.547Z,6.90
2017-11-13T18:55:01.343Z,6.80
2017-11-13T18:57:30.610Z,6.80
2017-11-13T18:59:59.629Z,6.70
2017-11-13T19:02:28.164Z,6.70
2017-11-13T19:04:57.503Z,6.70
2017-11-13T19:07:25.869Z,6.70
2017-11-13T19:09:54.237Z,6.60
2017-11-13T19:12:22.815Z,6.70
2017-11-13T19:14:51.248Z,6.60
2017-11-13T19:17:19.616Z,6.60
2017-11-13T19:19:48.189Z,6.60
2017-11-13T19:22:16.819Z,6.60
2017-11-13T19:24:46.184Z,6.50
2017-11-13T19:27:14.831Z,6.50
2017-11-13T19:29:43.192Z,6.50
2017-11-13T19:32:12.710Z,6.50
2017-11-13T19:34:41.125Z,6.50
2017-11-13T19:37:09.855Z,6.50
2017-11-13T19:39:39.003Z,6.40
2017-11-13T19:42:07.360Z,6.40
2017-11-13T19:44:35.930Z,6.40
2017-11-13T19:47:04.384Z,6.40
2017-11-13T19:49:32.779Z,6.40
2017-11-13T19:52:01.175Z,6.30
2017-11-13T19:54:29.629Z,6.30
2017-11-13T19:56:58.053Z,6.20
2017-11-13T19:59:26.697Z,6.20
2017-11-13T20:01:55.376Z,6.20
2017-11-13T20:04:23.761Z,6.20
2017-11-13T20:06:53.698Z,6.20
2017-11-13T20:09:22.113Z,6.10
2017-11-13T20:11:50.613Z,6.10
2017-11-13T20:14:19.723Z,6.10
2017-11-13T20:16:49.762Z,6.10
2017-11-13T20:19:19.126Z,6.00
2017-11-13T20:21:47.544Z,6.00
2017-11-13T20:24:15.911Z,6.00
2017-11-13T20:26:44.290Z,6.00
2017-11-13T20:29:12.702Z,6.00
2017-11-13T20:31:43.346Z,6.00
2017-11-13T20:34:11.836Z,6.00
2017-11-13T20:36:41.133Z,6.00
2017-11-13T20:39:10.263Z,5.90
2017-11-13T20:41:38.678Z,5.90
2017-11-13T20:44:07.072Z,5.80
2017-11-13T20:46:35.560Z,5.80
2017-11-13T20:49:04.526Z,5.70
2017-11-13T20:51:33.849Z,5.70
2017-11-13T20:54:03.772Z,5.60
2017-11-13T20:56:32.159Z,5.60
2017-11-13T20:59:00.601Z,5.60
2017-11-13T21:01:29.009Z,5.60
2017-11-13T21:03:58.158Z,5.60
2017-11-13T21:06:26.515Z,5.60
2017-11-13T21:08:54.923Z,5.60
2017-11-13T21:11:23.787Z,5.60
2017-11-13T21:13:52.363Z,5.60
2017-11-13T21:16:20.786Z,5.60
2017-11-13T21:18:49.165Z,5.60
2017-11-13T21:21:17.525Z,5.60
2017-11-13T21:23:45.911Z,5.50
2017-11-13T21:26:14.550Z,5.40
2017-11-13T21:28:43.023Z,5.40
2017-11-13T21:31:12.167Z,5.50
2017-11-13T21:33:40.561Z,5.40
2017-11-13T21:36:10.069Z,5.50
2017-11-13T21:38:38.437Z,5.40
2017-11-13T21:41:08.188Z,5.40
2017-11-13T21:43:36.008Z,5.40
2017-11-13T21:46:04.337Z,5.50
2017-11-13T21:48:33.469Z,5.50
2017-11-13T21:51:01.848Z,5.50
2017-11-13T21:53:30.234Z,5.50
2017-11-13T21:55:58.630Z,5.50
2017-11-13T21:58:27.038Z,5.40
2017-11-13T22:00:56.163Z,5.50
2017-11-13T22:03:25.064Z,5.40
2017-11-13T22:05:53.432Z,5.40
2017-11-13T22:08:22.629Z,5.40
2017-11-13T22:10:51.000Z,5.40
2017-11-13T22:13:20.313Z,5.30
2017-11-13T22:15:48.687Z,5.30
2017-11-13T22:18:17.100Z,5.30
2017-11-13T22:20:45.278Z,5.30
2017-11-13T22:23:14.003Z,5.30
2017-11-13T22:25:43.389Z,5.30
2017-11-13T22:28:11.834Z,5.30
2017-11-13T22:30:40.189Z,5.30
2017-11-13T22:33:10.020Z,5.30
2017-11-13T22:35:38.379Z,5.20
2017-11-13T22:38:06.777Z,5.20
2017-11-13T22:40:35.158Z,5.10
2017-11-13T22:43:04.480Z,5.20
2017-11-13T22:45:33.432Z,5.10
2017-11-13T22:48:01.835Z,5.10
2017-11-13T22:50:31.008Z,5.10
2017-11-13T22:52:59.383Z,5.00
2017-11-13T22:55:28.698Z,5.00
2017-11-13T22:57:57.955Z,5.00
2017-11-13T23:00:26.824Z,5.00
2017-11-13T23:02:55.214Z,5.00
2017-11-13T23:05:23.589Z,4.90
2017-11-13T23:07:51.964Z,4.90
2017-11-13T23:10:20.543Z,4.90
2017-11-13T23:12:48.902Z,4.90
2017-11-13T23:15:17.259Z,4.80
2017-11-13T23:17:45.614Z,4.70
2017-11-13T23:20:13.989Z,4.60
2017-11-13T23:22:42.327Z,4.70
2017-11-13T23:25:11.485Z,4.70
2017-11-13T23:27:39.844Z,4.70
2017-11-13T23:30:07.956Z,4.60
2017-11-13T23:32:36.518Z,4.70
2017-11-13T23:35:05.095Z,4.70
2017-11-13T23:37:33.452Z,4.70
2017-11-13T23:40:01.833Z,4.80
2017-11-13T23:42:30.021Z,4.80
2017-11-13T23:44:59.101Z,4.80
2017-11-13T23:47:27.278Z,4.70
2017-11-13T23:49:55.672Z,4.70
2017-11-13T23:52:24.080Z,4.70
2017-11-13T23:54:54.842Z,4.70
2017-11-13T23:57:24.192Z,4.70
2017-11-13T23:59:52.627Z,4.70
